createdAt,value
2017-06-10T00:01:57.251Z,70.10
2017-06-10T00:04:28.809Z,70.00
2017-06-10T00:07:00.346Z,69.20
2017-06-10T00:09:31.912Z,70.40
2017-06-10T00:12:03.445Z,70.90
2017-06-10T00:14:35.937Z,71.90
2017-06-10T00:17:07.445Z,71.80
2017-06-10T00:19:38.997Z,71.90
2017-06-10T00:22:10.510Z,70.40
2017-06-10T00:24:42.027Z,70.30
2017-06-10T00:27:14.264Z,71.00
2017-06-10T00:29:45.882Z,71.00
2017-06-10T00:32:17.360Z,70.60
2017-06-10T00:34:48.904Z,69.30
2017-06-10T00:37:20.460Z,69.70
2017-06-10T00:39:52.022Z,70.00
2017-06-10T00:42:23.475Z,70.00
2017-06-10T00:44:55.012Z,70.60
2017-06-10T00:47:26.492Z,70.40
2017-06-10T00:49:58.084Z,71.20
2017-06-10T00:52:29.605Z,70.90
2017-06-10T00:55:01.121Z,70.90
2017-06-10T00:57:32.604Z,71.40
2017-06-10T01:00:04.439Z,71.30
2017-06-10T01:02:35.969Z,70.80
2017-06-10T01:05:07.488Z,71.50
2017-06-10T01:07:38.962Z,72.30
2017-06-10T01:10:10.527Z,71.40
2017-06-10T01:12:42.033Z,71.20
2017-06-10T01:15:13.581Z,70.90
2017-06-10T01:17:45.053Z,71.20
2017-06-10T01:20:17.306Z,71.00
2017-06-10T01:22:48.819Z,70.90
2017-06-10T01:25:20.339Z,70.60
2017-06-10T01:27:51.880Z,70.00
2017-06-10T01:30:24.144Z,70.60
2017-06-10T01:32:56.433Z,72.40
2017-06-10T01:35:28.685Z,71.30
2017-06-10T01:38:00.977Z,72.10
2017-06-10T01:40:32.498Z,72.10
2017-06-10T01:43:04.086Z,72.30
2017-06-10T01:45:35.633Z,71.60
2017-06-10T01:48:07.245Z,71.90
2017-06-10T01:50:38.737Z,72.70
2017-06-10T01:53:10.254Z,72.90
2017-06-10T01:55:41.777Z,73.50
2017-06-10T01:58:13.320Z,73.70
2017-06-10T02:00:44.789Z,72.90
2017-06-10T02:03:16.310Z,72.30
2017-06-10T02:05:47.825Z,72.60
2017-06-10T02:08:19.353Z,72.70
2017-06-10T02:10:50.977Z,71.80
2017-06-10T02:13:22.457Z,71.80
2017-06-10T02:15:54.124Z,71.30
2017-06-10T02:18:25.656Z,71.70
2017-06-10T02:20:57.195Z,71.40
2017-06-10T02:23:28.751Z,71.60
2017-06-10T02:26:00.286Z,71.50
2017-06-10T02:28:31.822Z,71.80
2017-06-10T02:31:04.041Z,71.10
2017-06-10T02:33:35.590Z,70.90
2017-06-10T02:36:07.146Z,71.30
2017-06-10T02:38:38.700Z,71.10
2017-06-10T02:41:10.285Z,70.90
2017-06-10T02:43:41.764Z,69.00
2017-06-10T02:46:13.298Z,70.00
2017-06-10T02:48:45.538Z,67.20
2017-06-10T02:51:17.073Z,67.20
2017-06-10T02:53:48.654Z,68.10
2017-06-10T02:56:20.193Z,68.10
2017-06-10T02:58:51.743Z,68.00
2017-06-10T03:01:23.217Z,68.30
2017-06-10T03:03:54.720Z,67.40
2017-06-10T03:06:26.225Z,68.40
2017-06-10T03:08:57.793Z,68.90
2017-06-10T03:11:30.033Z,70.20
2017-06-10T03:14:01.674Z,70.10
2017-06-10T03:16:45.534Z,69.30
2017-06-10T03:19:17.008Z,70.60
2017-06-10T03:21:49.309Z,71.20
2017-06-10T03:24:20.826Z,71.20
2017-06-10T03:26:52.353Z,70.70
2017-06-10T03:29:23.849Z,69.30
2017-06-10T03:31:55.672Z,66.60
2017-06-10T03:34:27.145Z,65.60
2017-06-10T03:36:59.421Z,63.80
2017-06-10T03:39:30.929Z,63.70
2017-06-10T03:42:02.489Z,63.60
2017-06-10T03:44:33.958Z,62.70
2017-06-10T03:47:05.597Z,62.60
2017-06-10T03:49:37.097Z,61.70
2017-06-10T03:52:08.629Z,62.00
2017-06-10T03:54:40.881Z,62.10
2017-06-10T03:57:07.301Z,62.10
2017-06-10T03:59:38.780Z,61.20
2017-06-10T04:02:11.052Z,61.30
2017-06-10T04:04:43.308Z,60.90
2017-06-10T04:07:14.861Z,60.90
2017-06-10T04:09:46.355Z,61.10
2017-06-10T04:12:17.864Z,60.40
2017-06-10T04:14:49.341Z,60.50
2017-06-10T04:17:20.941Z,61.60
2017-06-10T04:19:52.482Z,62.40
2017-06-10T04:22:24.004Z,63.80
2017-06-10T04:24:55.553Z,65.00
2017-06-10T04:27:27.764Z,68.70
2017-06-10T04:29:59.271Z,68.70
2017-06-10T04:32:25.685Z,70.90
2017-06-10T04:34:57.165Z,73.10
2017-06-10T04:37:28.720Z,75.10
2017-06-10T04:40:00.195Z,76.70
2017-06-10T04:42:31.685Z,77.00
2017-06-10T04:45:03.273Z,79.30
2017-06-10T04:47:34.745Z,80.90
2017-06-10T04:50:06.309Z,82.80
2017-06-10T04:52:37.813Z,84.70
2017-06-10T04:55:09.349Z,84.10
2017-06-10T04:57:40.853Z,84.90
2017-06-10T05:00:12.409Z,84.70
2017-06-10T05:02:43.913Z,85.60
2017-06-10T05:05:15.472Z,86.00
2017-06-10T05:07:47.705Z,87.60
2017-06-10T05:10:19.300Z,87.00
2017-06-10T05:12:51.521Z,88.00
2017-06-10T05:15:23.425Z,87.90
2017-06-10T05:17:55.688Z,86.50
2017-06-10T05:20:27.233Z,86.50
2017-06-10T05:22:58.715Z,86.80
2017-06-10T05:25:30.277Z,87.60
2017-06-10T05:28:01.790Z,88.10
2017-06-10T05:30:33.682Z,88.90
2017-06-10T05:33:05.195Z,89.40
2017-06-10T05:35:36.830Z,90.20
2017-06-10T05:38:08.341Z,90.70
2017-06-10T05:40:40.586Z,90.80
2017-06-10T05:43:12.114Z,90.70
2017-06-10T05:45:43.741Z,90.80
2017-06-10T05:48:15.271Z,90.90
2017-06-10T05:50:46.824Z,91.10
2017-06-10T05:53:18.346Z,90.60
2017-06-10T05:55:49.938Z,91.20
2017-06-10T05:58:21.437Z,91.00
2017-06-10T06:00:52.985Z,91.40
2017-06-10T06:03:24.483Z,91.60
2017-06-10T06:05:56.743Z,91.80
2017-06-10T06:08:29.000Z,91.90
2017-06-10T06:11:01.271Z,92.20
2017-06-10T06:13:32.786Z,92.00
2017-06-10T06:16:04.426Z,92.10
2017-06-10T06:18:35.961Z,91.20
2017-06-10T06:21:07.521Z,92.20
2017-06-10T06:23:38.998Z,92.80
2017-06-10T06:26:10.604Z,92.90
2017-06-10T06:28:42.869Z,92.80
2017-06-10T06:31:15.188Z,92.90
2017-06-10T06:33:46.733Z,92.90
2017-06-10T06:36:18.277Z,92.90
2017-06-10T06:38:49.801Z,93.10
2017-06-10T06:41:22.087Z,93.00
2017-06-10T06:43:53.597Z,93.00
2017-06-10T06:46:25.252Z,93.20
2017-06-10T06:48:56.942Z,92.50
2017-06-10T06:51:28.501Z,93.00
2017-06-10T06:54:00.036Z,92.90
2017-06-10T06:56:32.232Z,92.40
2017-06-10T06:59:03.799Z,92.40
2017-06-10T07:01:35.306Z,92.50
2017-06-10T07:04:07.621Z,93.30
2017-06-10T07:06:39.265Z,93.30
2017-06-10T07:09:11.643Z,93.60
2017-06-10T07:11:43.249Z,93.70
2017-06-10T07:14:15.025Z,93.50
2017-06-10T07:16:53.526Z,93.20
2017-06-10T07:19:25.003Z,93.50
2017-06-10T07:21:56.782Z,93.40
2017-06-10T07:24:28.317Z,93.00
2017-06-10T07:26:59.870Z,93.00
2017-06-10T07:29:31.383Z,93.70
2017-06-10T07:32:02.974Z,93.70
2017-06-10T07:34:34.606Z,93.50
2017-06-10T07:37:06.158Z,92.50
2017-06-10T07:39:38.457Z,92.70
2017-06-10T07:42:10.006Z,92.70
2017-06-10T07:44:41.601Z,92.20
2017-06-10T07:47:13.123Z,93.10
2017-06-10T07:49:44.670Z,93.40
2017-06-10T07:52:16.130Z,93.30
2017-06-10T07:54:47.655Z,94.20
2017-06-10T07:57:19.150Z,92.60
2017-06-10T07:59:50.689Z,91.00
2017-06-10T08:02:22.333Z,91.10
2017-06-10T08:04:53.849Z,90.00
2017-06-10T08:07:25.413Z,90.00
2017-06-10T08:09:57.789Z,91.70
2017-06-10T08:12:30.024Z,88.70
2017-06-10T08:15:01.595Z,88.60
2017-06-10T08:17:33.105Z,89.00
2017-06-10T08:20:05.437Z,87.20
2017-06-10T08:22:37.038Z,88.40
2017-06-10T08:25:08.576Z,90.20
2017-06-10T08:27:40.141Z,88.00
2017-06-10T08:30:11.653Z,88.50
2017-06-10T08:32:43.957Z,88.80
2017-06-10T08:35:15.513Z,88.80
2017-06-10T08:37:47.026Z,87.40
2017-06-10T08:40:18.582Z,86.30
2017-06-10T08:42:50.860Z,86.60
2017-06-10T08:45:22.406Z,86.80
2017-06-10T08:47:54.666Z,88.80
2017-06-10T08:50:26.958Z,87.10
2017-06-10T08:52:58.437Z,87.10
2017-06-10T08:55:29.935Z,84.30
2017-06-10T08:58:01.445Z,83.40
2017-06-10T09:00:33.098Z,84.90
2017-06-10T09:03:04.664Z,84.00
2017-06-10T09:05:36.183Z,84.60
2017-06-10T09:08:07.717Z,85.20
2017-06-10T09:10:39.222Z,84.60
2017-06-10T09:13:10.685Z,85.30
2017-06-10T09:15:42.241Z,83.40
2017-06-10T09:18:13.741Z,81.50
2017-06-10T09:20:45.278Z,79.50
2017-06-10T09:23:17.587Z,81.50
2017-06-10T09:25:49.257Z,81.50
2017-06-10T09:28:21.508Z,78.50
2017-06-10T09:30:53.053Z,78.40
2017-06-10T09:33:24.586Z,78.30
2017-06-10T09:35:56.101Z,77.50
2017-06-10T09:38:27.631Z,75.60
2017-06-10T09:40:59.197Z,77.50
2017-06-10T09:43:30.712Z,77.50
2017-06-10T09:46:02.274Z,81.00
2017-06-10T09:48:33.969Z,80.90
2017-06-10T09:51:05.528Z,82.10
2017-06-10T09:53:37.382Z,80.50
2017-06-10T09:56:08.861Z,77.50
2017-06-10T09:58:41.253Z,76.50
2017-06-10T10:01:12.781Z,76.50
2017-06-10T10:03:45.092Z,78.40
2017-06-10T10:06:16.616Z,78.30
2017-06-10T10:08:48.460Z,78.30
2017-06-10T10:11:19.993Z,79.30
2017-06-10T10:13:51.519Z,81.00
2017-06-10T10:16:23.034Z,79.20
2017-06-10T10:18:54.569Z,76.30
2017-06-10T10:21:26.774Z,73.50
2017-06-10T10:23:58.369Z,73.00
2017-06-10T10:26:29.898Z,79.20
2017-06-10T10:29:01.441Z,78.60
2017-06-10T10:31:32.937Z,78.70
2017-06-10T10:34:04.610Z,76.30
2017-06-10T10:36:36.099Z,75.50
2017-06-10T10:39:07.596Z,72.40
2017-06-10T10:41:41.296Z,74.10
2017-06-10T10:44:13.074Z,72.70
2017-06-10T10:46:44.733Z,72.00
2017-06-10T10:49:17.263Z,73.60
2017-06-10T10:51:49.557Z,73.90
2017-06-10T10:54:21.086Z,73.90
2017-06-10T10:56:52.635Z,71.80
2017-06-10T10:59:24.143Z,70.50
2017-06-10T11:01:55.794Z,76.10
2017-06-10T11:04:27.293Z,71.50
2017-06-10T11:06:58.946Z,68.40
2017-06-10T11:09:30.481Z,66.50
2017-06-10T11:12:02.038Z,70.40
2017-06-10T11:14:28.485Z,67.50
2017-06-10T11:16:59.949Z,63.60
2017-06-10T11:19:31.477Z,62.90
2017-06-10T11:22:02.989Z,68.50
2017-06-10T11:24:34.612Z,63.50
2017-06-10T11:27:06.878Z,59.20
2017-06-10T11:29:38.764Z,59.10
2017-06-10T11:32:11.034Z,67.50
2017-06-10T11:34:43.333Z,58.10
2017-06-10T11:37:14.830Z,57.60
2017-06-10T11:39:46.373Z,58.80
2017-06-10T11:42:17.945Z,58.70
2017-06-10T11:44:49.601Z,58.60
2017-06-10T11:47:21.112Z,58.60
2017-06-10T11:49:52.931Z,56.80
2017-06-10T11:52:24.565Z,63.80
2017-06-10T11:54:56.848Z,57.50
2017-06-10T11:57:28.341Z,57.40
2017-06-10T11:59:59.901Z,55.90
2017-06-10T12:02:31.352Z,56.60
2017-06-10T12:05:02.873Z,56.10
2017-06-10T12:07:35.122Z,54.30
2017-06-10T12:10:06.773Z,54.30
2017-06-10T12:12:38.301Z,53.40
2017-06-10T12:15:09.893Z,54.00
2017-06-10T12:17:42.337Z,52.50
2017-06-10T12:20:13.872Z,54.80
2017-06-10T12:22:45.776Z,54.70
2017-06-10T12:25:24.305Z,53.10
2017-06-10T12:27:56.668Z,55.00
2017-06-10T12:30:28.169Z,54.20
2017-06-10T12:32:59.770Z,52.80
2017-06-10T12:35:31.245Z,53.50
2017-06-10T12:38:03.530Z,49.80
2017-06-10T12:40:34.993Z,49.70
2017-06-10T12:43:06.537Z,50.00
2017-06-10T12:45:38.041Z,50.60
2017-06-10T12:48:09.690Z,48.90
2017-06-10T12:50:41.172Z,47.80
2017-06-10T12:53:13.473Z,44.40
2017-06-10T12:55:44.978Z,44.40
2017-06-10T12:58:16.549Z,48.40
2017-06-10T13:00:48.081Z,46.10
2017-06-10T13:03:19.726Z,47.00
2017-06-10T13:05:51.212Z,43.20
2017-06-10T13:08:23.469Z,44.10
2017-06-10T13:10:55.710Z,41.20
2017-06-10T13:13:27.590Z,40.70
2017-06-10T13:15:59.072Z,40.80
2017-06-10T13:18:25.473Z,42.30
2017-06-10T13:20:56.949Z,37.20
2017-06-10T13:23:29.159Z,35.50
2017-06-10T13:26:00.710Z,35.50
2017-06-10T13:28:32.222Z,37.00
2017-06-10T13:31:04.476Z,35.10
2017-06-10T13:33:36.713Z,35.40
2017-06-10T13:36:08.316Z,35.20
2017-06-10T13:38:39.817Z,36.70
2017-06-10T13:41:11.460Z,36.30
2017-06-10T13:43:42.925Z,38.00
2017-06-10T13:46:14.432Z,34.70
2017-06-10T13:48:45.979Z,33.60
2017-06-10T13:51:17.513Z,33.90
2017-06-10T13:53:49.781Z,35.10
2017-06-10T13:56:21.258Z,34.60
2017-06-10T13:58:52.837Z,35.50
2017-06-10T14:01:24.349Z,31.00
2017-06-10T14:03:56.607Z,31.30
2017-06-10T14:06:28.085Z,30.60
2017-06-10T14:08:59.729Z,29.80
2017-06-10T14:11:31.958Z,28.60
2017-06-10T14:14:03.468Z,28.60
2017-06-10T14:16:34.989Z,30.00
2017-06-10T14:19:06.499Z,29.50
2017-06-10T14:21:38.396Z,26.60
2017-06-10T14:24:09.873Z,25.60
2017-06-10T14:26:42.160Z,25.70
2017-06-10T14:29:13.993Z,25.60
2017-06-10T14:31:46.252Z,25.60
2017-06-10T14:34:17.768Z,26.10
2017-06-10T14:36:49.260Z,27.50
2017-06-10T14:39:20.785Z,25.70
2017-06-10T14:41:52.425Z,27.60
2017-06-10T14:44:23.935Z,27.00
2017-06-10T14:46:56.207Z,28.10
2017-06-10T14:49:27.717Z,28.10
2017-06-10T14:51:59.266Z,27.20
2017-06-10T14:54:30.773Z,31.10
2017-06-10T14:57:02.326Z,25.90
2017-06-10T14:59:33.821Z,27.40
2017-06-10T15:02:05.338Z,26.30
2017-06-10T15:04:36.800Z,27.20
2017-06-10T15:07:08.283Z,26.50
2017-06-10T15:09:39.788Z,28.90
2017-06-10T15:12:11.303Z,36.80
2017-06-10T15:14:42.837Z,42.70
2017-06-10T15:17:14.390Z,43.30
2017-06-10T15:19:45.881Z,44.20
2017-06-10T15:22:18.112Z,43.60
2017-06-10T15:24:49.595Z,43.60
2017-06-10T15:27:21.933Z,46.00
2017-06-10T15:29:53.441Z,46.00
2017-06-10T15:32:24.973Z,46.30
2017-06-10T15:34:57.236Z,49.50
2017-06-10T15:37:29.456Z,48.60
2017-06-10T15:40:02.180Z,48.60
2017-06-10T15:42:34.099Z,48.70
2017-06-10T15:45:05.657Z,47.40
2017-06-10T15:47:37.213Z,47.90
2017-06-10T15:50:08.754Z,49.70
2017-06-10T15:52:40.366Z,49.30
2017-06-10T15:55:12.646Z,50.30
2017-06-10T15:57:44.201Z,50.20
2017-06-10T16:00:15.986Z,48.90
2017-06-10T16:02:47.573Z,49.20
2017-06-10T16:05:19.120Z,50.30
2017-06-10T16:07:50.645Z,49.70
2017-06-10T16:10:22.262Z,50.20
2017-06-10T16:12:54.478Z,47.50
2017-06-10T16:15:26.014Z,47.40
2017-06-10T16:17:57.484Z,49.00
2017-06-10T16:20:29.005Z,48.30
2017-06-10T16:23:00.503Z,52.10
2017-06-10T16:25:32.009Z,50.60
2017-06-10T16:28:03.500Z,51.30
2017-06-10T16:30:35.037Z,50.40
2017-06-10T16:33:06.540Z,51.80
2017-06-10T16:35:38.886Z,54.00
2017-06-10T16:38:10.361Z,54.00
2017-06-10T16:40:42.646Z,53.50
2017-06-10T16:43:14.170Z,52.90
2017-06-10T16:45:45.678Z,53.00
2017-06-10T16:48:17.213Z,53.50
2017-06-10T16:50:48.709Z,53.70
2017-06-10T16:53:20.261Z,54.40
2017-06-10T16:55:51.724Z,55.60
2017-06-10T16:58:23.321Z,55.70
2017-06-10T17:00:55.030Z,56.50
2017-06-10T17:03:26.571Z,56.00
2017-06-10T17:05:58.036Z,55.80
2017-06-10T17:08:29.546Z,56.40
2017-06-10T17:11:01.051Z,57.00
2017-06-10T17:13:32.585Z,56.50
2017-06-10T17:16:04.096Z,56.60
2017-06-10T17:18:35.585Z,56.50
2017-06-10T17:21:07.132Z,57.80
2017-06-10T17:23:38.641Z,57.80
2017-06-10T17:26:10.458Z,58.30
2017-06-10T17:28:41.969Z,57.80
2017-06-10T17:31:13.502Z,57.00
2017-06-10T17:33:45.764Z,57.40
2017-06-10T17:36:18.071Z,56.70
2017-06-10T17:38:49.556Z,56.70
2017-06-10T17:41:21.048Z,57.10
2017-06-10T17:43:53.282Z,57.10
2017-06-10T17:46:24.842Z,57.00
2017-06-10T17:48:51.261Z,56.80
2017-06-10T17:51:22.765Z,58.30
2017-06-10T17:53:54.314Z,57.80
2017-06-10T17:56:25.825Z,58.70
2017-06-10T17:58:57.381Z,58.80
2017-06-10T18:01:28.929Z,58.10
2017-06-10T18:04:00.474Z,57.20
2017-06-10T18:06:31.966Z,57.20
2017-06-10T18:09:04.341Z,57.70
2017-06-10T18:11:36.597Z,58.50
2017-06-10T18:14:08.896Z,57.70
2017-06-10T18:16:40.416Z,57.70
2017-06-10T18:19:11.958Z,58.10
2017-06-10T18:21:43.520Z,59.50
2017-06-10T18:24:15.919Z,59.60
2017-06-10T18:26:54.313Z,58.90
2017-06-10T18:29:26.913Z,60.50
2017-06-10T18:32:04.676Z,60.40
2017-06-10T18:34:36.202Z,60.30
2017-06-10T18:37:07.741Z,62.10
2017-06-10T18:39:39.254Z,63.30
2017-06-10T18:42:10.777Z,63.00
2017-06-10T18:44:42.304Z,65.80
2017-06-10T18:47:13.855Z,64.30
2017-06-10T18:49:45.353Z,63.60
2017-06-10T18:52:16.869Z,62.90
2017-06-10T18:54:48.369Z,63.70
2017-06-10T18:57:20.642Z,66.40
2017-06-10T18:59:52.910Z,67.00
2017-06-10T19:02:25.124Z,66.90
2017-06-10T19:04:56.724Z,67.90
2017-06-10T19:07:29.010Z,67.40
2017-06-10T19:10:00.506Z,67.30
2017-06-10T19:12:32.006Z,68.30
2017-06-10T19:15:04.242Z,68.70
2017-06-10T19:17:35.797Z,68.70
2017-06-10T19:20:07.318Z,68.90
2017-06-10T19:22:38.862Z,69.50
2017-06-10T19:25:10.394Z,69.40
2017-06-10T19:27:42.095Z,68.70
2017-06-10T19:30:13.613Z,68.60
2017-06-10T19:32:45.133Z,70.90
2017-06-10T19:35:16.609Z,71.00
2017-06-10T19:37:48.231Z,71.60
2017-06-10T19:40:26.694Z,71.60
2017-06-10T19:42:58.243Z,71.90
2017-06-10T19:45:29.744Z,71.10
2017-06-10T19:48:01.236Z,70.60
2017-06-10T19:50:32.718Z,71.10
2017-06-10T19:53:04.249Z,71.70
2017-06-10T19:55:35.720Z,72.00
2017-06-10T19:58:14.214Z,72.50
2017-06-10T20:00:45.697Z,73.10
2017-06-10T20:03:17.421Z,73.00
2017-06-10T20:05:48.929Z,73.60
2017-06-10T20:08:20.465Z,74.00
2017-06-10T20:10:51.998Z,74.60
2017-06-10T20:13:23.558Z,75.10
2017-06-10T20:15:55.074Z,75.40
2017-06-10T20:18:26.620Z,75.70
2017-06-10T20:20:58.080Z,75.90
2017-06-10T20:23:29.603Z,75.70
2017-06-10T20:26:02.141Z,76.00
2017-06-10T20:28:28.637Z,76.30
2017-06-10T20:31:00.905Z,77.00
2017-06-10T20:33:32.654Z,76.20
2017-06-10T20:36:04.285Z,76.80
2017-06-10T20:38:36.110Z,77.80
2017-06-10T20:41:07.749Z,78.40
2017-06-10T20:43:39.314Z,78.60
2017-06-10T20:46:10.827Z,78.30
2017-06-10T20:48:43.111Z,78.90
2017-06-10T20:51:14.590Z,78.90
2017-06-10T20:53:46.154Z,79.60
2017-06-10T20:56:17.681Z,79.80
2017-06-10T20:58:49.217Z,79.80
2017-06-10T21:01:21.566Z,80.00
2017-06-10T21:03:53.942Z,80.50
2017-06-10T21:06:25.482Z,80.40
2017-06-10T21:08:57.146Z,80.20
2017-06-10T21:11:28.714Z,80.10
2017-06-10T21:14:00.387Z,81.30
2017-06-10T21:16:31.925Z,81.00
2017-06-10T21:19:04.162Z,81.20
2017-06-10T21:21:35.990Z,81.20
2017-06-10T21:24:07.916Z,81.10
2017-06-10T21:26:39.561Z,81.10
2017-06-10T21:29:11.194Z,81.30
2017-06-10T21:31:42.689Z,81.30
2017-06-10T21:34:14.218Z,81.80
2017-06-10T21:36:45.697Z,81.60
2017-06-10T21:39:17.694Z,81.60
2017-06-10T21:41:49.362Z,81.80
2017-06-10T21:44:20.881Z,82.40
2017-06-10T21:46:52.421Z,82.00
2017-06-10T21:49:23.913Z,81.50
2017-06-10T21:51:55.437Z,82.10
2017-06-10T21:54:26.970Z,82.50
2017-06-10T21:56:58.543Z,82.40
2017-06-10T21:59:32.692Z,82.80
2017-06-10T22:02:04.222Z,83.10
2017-06-10T22:04:35.736Z,83.10
2017-06-10T22:07:08.024Z,83.70
2017-06-10T22:09:39.853Z,83.70
2017-06-10T22:12:11.345Z,83.50
2017-06-10T22:14:42.898Z,83.80
2017-06-10T22:17:14.559Z,83.60
2017-06-10T22:19:46.053Z,83.80
2017-06-10T22:22:17.557Z,84.10
2017-06-10T22:24:49.274Z,83.90
2017-06-10T22:27:21.587Z,84.00
2017-06-10T22:29:53.137Z,84.00
2017-06-10T22:32:24.678Z,83.90
2017-06-10T22:34:56.238Z,83.70
2017-06-10T22:37:27.721Z,83.50
2017-06-10T22:39:59.336Z,83.50
2017-06-10T22:42:30.839Z,83.20
2017-06-10T22:45:02.357Z,83.40
2017-06-10T22:47:34.141Z,83.80
2017-06-10T22:50:05.683Z,84.10
2017-06-10T22:52:37.341Z,84.00
2017-06-10T22:55:08.866Z,84.00
2017-06-10T22:57:40.370Z,84.30
2017-06-10T23:00:11.925Z,84.10
2017-06-10T23:02:43.446Z,83.60
2017-06-10T23:05:14.977Z,84.00
2017-06-10T23:07:46.478Z,83.70
2017-06-10T23:10:18.871Z,84.20
2017-06-10T23:12:51.109Z,84.30
2017-06-10T23:15:22.677Z,84.20
2017-06-10T23:17:54.165Z,83.70
2017-06-10T23:20:25.668Z,83.80
2017-06-10T23:22:57.177Z,83.90
2017-06-10T23:25:28.819Z,83.90
2017-06-10T23:28:10.225Z,84.00
2017-06-10T23:30:41.737Z,82.60
2017-06-10T23:33:13.954Z,82.90
2017-06-10T23:35:45.473Z,81.70
2017-06-10T23:38:17.882Z,80.60
2017-06-10T23:40:49.434Z,80.60
2017-06-10T23:43:20.961Z,80.60
2017-06-10T23:45:52.409Z,79.30
2017-06-10T23:48:24.671Z,79.20
2017-06-10T23:50:56.923Z,79.00
2017-06-10T23:53:29.194Z,78.80
2017-06-10T23:56:01.414Z,79.20
2017-06-10T23:58:33.362Z,79.10
